Time;durP1;ratioP1;P1;durP2;ratioP2;P2;SDS_P1;SDS_P2;PMS_P1;PMS_P2;Temp;Humidity;BMP_temperature;BMP_pressure;BME280_temperature;BME280_humidity;BME280_pressure;Samples;Min_cycle;Max_cycle;Signal;HPM_P1;HPM_P2
2023/10/07 00:02:16;;;;;;;4.03;2.30;;;19.10;99.90;;;;;;5097924;28;20206;-87
2023/10/07 00:04:44;;;;;;;4.97;2.60;;;19.10;99.90;;;;;;5101268;28;20178;-87
2023/10/07 00:07:11;;;;;;;4.57;2.63;;;19.10;99.90;;;;;;5098317;28;20174;-87
2023/10/07 00:09:41;;;;;;;4.43;2.17;;;19.10;99.90;;;;;;5103689;28;20223;-87
2023/10/07 00:12:16;;;;;;;4.47;2.87;;;19.10;99.90;;;;;;5116298;28;20166;-87
2023/10/07 00:14:43;;;;;;;3.03;2.33;;;19.10;99.90;;;;;;5106827;28;20169;-88
2023/10/07 00:17:18;;;;;;;4.23;2.60;;;19.00;99.90;;;;;;5121564;28;20173;-88
2023/10/07 00:19:45;;;;;;;4.53;2.60;;;19.00;99.90;;;;;;5106598;28;20232;-87
2023/10/07 00:22:19;;;;;;;2.53;2.30;;;19.00;99.90;;;;;;5115290;28;20452;-87
2023/10/07 00:24:45;;;;;;;5.80;2.70;;;19.00;99.90;;;;;;5105016;28;20683;-87
2023/10/07 00:30:13;;;;;;;3.83;2.47;;;19.00;99.90;;;;;;5098791;28;20213;-87
2023/10/07 00:32:39;;;;;;;5.17;2.63;;;19.00;99.90;;;;;;5096774;28;20162;-88
2023/10/07 00:35:07;;;;;;;5.50;3.10;;;19.00;99.90;;;;;;5107272;28;20249;-87
2023/10/07 00:37:34;;;;;;;6.03;2.50;;;19.00;99.90;;;;;;5095556;28;20171;-87
2023/10/07 00:40:01;;;;;;;5.17;2.53;;;19.00;99.90;;;;;;5106228;28;20162;-87
2023/10/07 00:42:28;;;;;;;4.40;2.60;;;19.00;99.90;;;;;;5117646;28;20544;-87
2023/10/07 00:44:55;;;;;;;3.63;2.27;;;19.00;99.90;;;;;;5104846;28;20167;-87
2023/10/07 00:47:21;;;;;;;4.10;2.63;;;19.00;99.90;;;;;;5117178;28;20346;-87
2023/10/07 00:49:54;;;;;;;3.80;2.30;;;19.00;99.90;;;;;;5104145;28;20222;-88
2023/10/07 00:52:32;;;;;;;3.30;2.30;;;19.00;99.90;;;;;;5116343;28;20425;-87
2023/10/07 01:00:12;;;;;;;4.57;2.33;;;18.90;99.90;;;;;;5105584;28;20355;-87
2023/10/07 01:02:39;;;;;;;4.77;2.77;;;18.90;99.90;;;;;;5110156;28;20199;-88
2023/10/07 01:05:13;;;;;;;4.60;2.53;;;18.90;99.90;;;;;;5097225;28;20181;-88
2023/10/07 01:07:40;;;;;;;3.47;2.20;;;18.90;99.90;;;;;;5111851;28;20166;-87
2023/10/07 01:12:37;;;;;;;3.93;2.43;;;18.90;99.90;;;;;;5096072;28;20279;-88
2023/10/07 01:15:17;;;;;;;3.87;2.60;;;18.90;99.90;;;;;;5097262;28;20174;-87
2023/10/07 01:17:43;;;;;;;2.97;2.33;;;18.90;99.90;;;;;;5110498;28;20181;-87
2023/10/07 01:20:11;;;;;;;3.63;2.40;;;18.80;99.90;;;;;;5105826;28;20199;-87
2023/10/07 01:22:37;;;;;;;4.67;2.60;;;18.90;99.90;;;;;;5109540;28;20186;-87
2023/10/07 01:25:09;;;;;;;3.43;2.50;;;18.90;99.90;;;;;;5110073;28;20617;-87
2023/10/07 01:27:42;;;;;;;4.47;2.33;;;18.90;99.90;;;;;;5109644;28;20173;-87
2023/10/07 01:30:23;;;;;;;3.93;2.77;;;18.90;99.90;;;;;;5111445;28;20295;-87
2023/10/07 01:32:53;;;;;;;3.37;2.37;;;18.80;99.90;;;;;;5111727;28;20215;-88
2023/10/07 01:35:25;;;;;;;4.30;2.50;;;18.80;99.90;;;;;;5113150;28;20178;-88
2023/10/07 01:38:18;;;;;;;4.43;2.57;;;18.80;99.90;;;;;;5108534;28;20182;-87
2023/10/07 01:43:19;;;;;;;3.67;2.40;;;18.80;99.90;;;;;;5112970;28;20438;-88
2023/10/07 01:45:47;;;;;;;4.50;2.63;;;18.80;99.90;;;;;;5110891;28;20163;-87
2023/10/07 01:48:13;;;;;;;2.50;2.20;;;18.80;99.90;;;;;;5108957;28;20582;-87
2023/10/07 01:50:40;;;;;;;3.97;2.30;;;18.80;99.90;;;;;;5111631;28;20556;-87
2023/10/07 01:53:11;;;;;;;4.50;2.50;;;18.80;99.90;;;;;;5103831;28;20178;-87
2023/10/07 01:55:43;;;;;;;3.63;2.73;;;18.80;99.90;;;;;;5095436;28;20170;-87
2023/10/07 01:58:14;;;;;;;4.77;2.43;;;18.80;99.90;;;;;;5100392;28;20186;-87
2023/10/07 02:00:51;;;;;;;4.73;2.60;;;18.80;99.90;;;;;;5095475;28;20575;-87
2023/10/07 02:03:18;;;;;;;2.80;2.23;;;18.80;99.90;;;;;;5104118;28;20516;-87
2023/10/07 02:05:47;;;;;;;4.13;2.60;;;18.80;99.90;;;;;;5113308;28;20187;-88
2023/10/07 02:08:17;;;;;;;4.17;2.47;;;18.80;99.90;;;;;;5104330;28;20473;-87
2023/10/07 02:10:45;;;;;;;4.17;2.40;;;18.80;99.90;;;;;;5116495;28;20208;-87
2023/10/07 02:13:19;;;;;;;5.07;2.70;;;18.80;99.90;;;;;;5106442;28;20243;-87
2023/10/07 02:15:49;;;;;;;3.80;2.47;;;18.80;99.90;;;;;;5116786;28;20516;-87
2023/10/07 02:18:18;;;;;;;4.23;2.77;;;18.80;99.90;;;;;;5104778;28;20170;-87
2023/10/07 02:20:52;;;;;;;3.50;2.53;;;18.80;99.90;;;;;;5117448;28;20198;-86
2023/10/07 02:23:34;;;;;;;3.47;2.50;;;18.80;99.90;;;;;;5112025;28;20173;-86
2023/10/07 02:26:00;;;;;;;4.00;2.57;;;18.80;99.90;;;;;;5096538;28;20545;-87
2023/10/07 02:28:32;;;;;;;3.73;2.70;;;18.80;99.90;;;;;;5111098;28;20340;-87
2023/10/07 02:31:01;;;;;;;3.87;2.63;;;18.80;99.90;;;;;;5096380;28;20170;-87
2023/10/07 02:33:41;;;;;;;4.90;2.80;;;18.80;99.90;;;;;;5106146;28;20272;-87
2023/10/07 02:36:12;;;;;;;5.43;2.50;;;18.80;99.90;;;;;;5095595;28;20240;-87
2023/10/07 02:38:42;;;;;;;4.47;2.40;;;18.80;99.90;;;;;;5107988;28;20596;-87
2023/10/07 02:41:17;;;;;;;3.53;2.57;;;18.80;99.90;;;;;;5093873;28;20174;-87
2023/10/07 02:43:49;;;;;;;3.80;2.70;;;18.80;99.90;;;;;;5106559;28;20184;-87
2023/10/07 02:46:31;;;;;;;3.60;2.40;;;18.80;99.90;;;;;;5094451;28;20372;-87
2023/10/07 02:49:05;;;;;;;4.77;2.87;;;18.70;99.90;;;;;;5106787;28;20214;-87
2023/10/07 02:51:33;;;;;;;4.67;2.40;;;18.80;99.90;;;;;;5094622;28;20170;-87
2023/10/07 02:54:00;;;;;;;3.23;2.40;;;18.80;99.90;;;;;;5099252;28;20452;-87
2023/10/07 02:56:29;;;;;;;3.87;2.53;;;18.80;99.90;;;;;;5114326;28;20559;-87
2023/10/07 02:59:02;;;;;;;4.47;2.70;;;18.80;99.90;;;;;;5103679;28;20365;-87
2023/10/07 03:01:29;;;;;;;3.87;2.40;;;18.80;99.90;;;;;;5113764;28;20188;-87
2023/10/07 03:03:55;;;;;;;3.60;2.33;;;18.80;99.90;;;;;;5104360;28;20239;-87
2023/10/07 03:06:28;;;;;;;4.03;2.47;;;18.80;99.90;;;;;;5111995;28;20370;-86
2023/10/07 03:09:00;;;;;;;4.07;2.30;;;18.80;99.90;;;;;;5105538;28;20201;-87
2023/10/07 03:11:40;;;;;;;5.00;2.70;;;18.80;99.90;;;;;;5110785;28;20241;-87
2023/10/07 03:14:06;;;;;;;5.00;2.77;;;18.80;99.90;;;;;;5104975;28;20181;-87
2023/10/07 03:16:43;;;;;;;5.10;3.00;;;18.80;99.90;;;;;;5110484;28;20186;-87
2023/10/07 03:19:20;;;;;;;5.00;2.83;;;18.80;99.90;;;;;;5106178;28;20265;-87
2023/10/07 03:21:55;;;;;;;3.10;2.53;;;18.80;99.90;;;;;;5110371;28;20185;-86
2023/10/07 03:24:32;;;;;;;4.10;2.50;;;18.70;99.90;;;;;;5102255;28;20499;-87
2023/10/07 03:27:10;;;;;;;4.43;2.87;;;18.70;99.90;;;;;;5108897;28;20170;-87
2023/10/07 03:29:37;;;;;;;4.00;2.50;;;18.80;99.90;;;;;;5104183;28;20198;-87
2023/10/07 03:32:12;;;;;;;4.73;2.70;;;18.70;99.90;;;;;;5108628;28;20196;-87
2023/10/07 03:34:45;;;;;;;4.07;2.63;;;18.70;99.90;;;;;;5106651;28;20175;-86
2023/10/07 03:42:21;;;;;;;6.20;2.47;;;18.70;99.90;;;;;;5110999;28;20174;-87
2023/10/07 03:44:47;;;;;;;4.50;2.63;;;18.70;99.90;;;;;;5111579;28;20170;-87
2023/10/07 03:47:15;;;;;;;4.10;2.50;;;18.70;99.90;;;;;;5113225;28;20533;-87
2023/10/07 03:49:41;;;;;;;5.77;3.13;;;18.70;99.90;;;;;;5109589;28;20288;-86
2023/10/07 03:52:12;;;;;;;4.50;2.80;;;18.70;99.90;;;;;;5104394;28;20174;-87
2023/10/07 03:54:42;;;;;;;4.90;3.00;;;18.70;99.90;;;;;;5100978;28;20171;-87
2023/10/07 03:57:09;;;;;;;3.80;2.60;;;18.70;99.90;;;;;;5102844;28;20170;-87
2023/10/07 03:59:36;;;;;;;5.40;2.70;;;18.70;99.90;;;;;;5096485;28;20659;-87
2023/10/07 04:02:31;;;;;;;4.40;2.97;;;18.70;99.90;;;;;;5100150;28;20243;-87
2023/10/07 04:05:09;;;;;;;5.17;2.70;;;18.70;99.90;;;;;;5110446;28;20253;-87
2023/10/07 04:07:36;;;;;;;4.63;2.90;;;18.70;99.90;;;;;;5100366;28;20170;-87
2023/10/07 04:12:47;;;;;;;4.17;3.00;;;18.70;99.90;;;;;;5103148;28;20223;-87
2023/10/07 04:15:16;;;;;;;3.50;2.67;;;18.70;99.90;;;;;;5107285;28;20474;-87
2023/10/07 04:17:44;;;;;;;3.33;2.60;;;18.70;99.90;;;;;;5104782;28;20174;-87
2023/10/07 04:20:30;;;;;;;4.40;2.77;;;18.70;99.90;;;;;;5094822;28;20206;-87
2023/10/07 04:23:00;;;;;;;4.37;3.17;;;18.80;99.90;;;;;;5102093;28;20589;-87
2023/10/07 04:25:27;;;;;;;4.30;2.90;;;18.80;99.90;;;;;;5108832;28;20171;-87
2023/10/07 04:27:53;;;;;;;3.20;2.57;;;18.80;99.90;;;;;;5104435;28;20261;-88
2023/10/07 04:30:38;;;;;;;3.97;2.60;;;18.80;99.90;;;;;;5092739;28;20202;-87
2023/10/07 04:33:08;;;;;;;4.13;2.70;;;18.80;99.90;;;;;;5105119;28;20171;-87
2023/10/07 04:35:34;;;;;;;4.63;2.80;;;18.80;99.90;;;;;;5094778;28;20175;-87
2023/10/07 04:38:10;;;;;;;4.60;3.20;;;18.70;99.90;;;;;;5101778;28;20174;-87
2023/10/07 04:41:30;;;;;;;4.50;2.90;;;18.70;99.90;;;;;;5091927;28;20201;-87
2023/10/07 04:46:23;;;;;;;4.23;2.83;;;18.70;99.90;;;;;;5096312;28;20167;-87
2023/10/07 04:48:56;;;;;;;6.33;3.00;;;18.70;99.90;;;;;;5101289;28;20198;-87
2023/10/07 04:53:59;;;;;;;6.47;3.03;;;18.70;99.90;;;;;;5093043;28;20571;-87
2023/10/07 04:56:31;;;;;;;4.47;2.83;;;18.70;99.90;;;;;;5094313;28;20235;-87
2023/10/07 04:59:00;;;;;;;6.37;3.00;;;18.70;99.90;;;;;;5106853;28;20182;-87
2023/10/07 05:01:31;;;;;;;5.90;3.10;;;18.70;99.90;;;;;;5095976;28;20179;-87
2023/10/07 05:04:09;;;;;;;5.17;3.10;;;18.70;99.90;;;;;;5107718;28;20167;-87
2023/10/07 05:06:37;;;;;;;4.73;3.40;;;18.70;99.90;;;;;;5100628;28;20595;-87
2023/10/07 05:09:09;;;;;;;4.70;3.13;;;18.70;99.90;;;;;;5113118;28;20294;-87
2023/10/07 05:11:45;;;;;;;4.70;2.77;;;18.70;99.90;;;;;;5096224;28;20162;-87
2023/10/07 05:14:11;;;;;;;3.97;2.80;;;18.70;99.90;;;;;;5107626;28;20170;-87
2023/10/07 05:16:37;;;;;;;5.47;2.83;;;18.70;99.90;;;;;;5095699;28;20167;-87
2023/10/07 05:19:08;;;;;;;5.30;3.13;;;18.70;99.90;;;;;;5108510;28;20171;-87
2023/10/07 05:21:37;;;;;;;3.37;2.40;;;18.70;99.90;;;;;;5095357;28;20175;-87
2023/10/07 05:24:04;;;;;;;4.83;3.03;;;18.70;99.90;;;;;;5106093;28;20190;-87
2023/10/07 05:26:31;;;;;;;4.57;2.80;;;18.70;99.90;;;;;;5095044;28;20175;-87
2023/10/07 05:29:02;;;;;;;3.63;2.50;;;18.70;99.90;;;;;;5105031;28;20209;-87
2023/10/07 05:31:30;;;;;;;5.00;2.93;;;18.70;99.90;;;;;;5093481;28;20170;-87
2023/10/07 05:34:00;;;;;;;5.53;3.13;;;18.70;99.90;;;;;;5102976;28;20201;-87
2023/10/07 05:36:32;;;;;;;5.63;3.10;;;18.70;99.90;;;;;;5094468;28;20360;-87
2023/10/07 05:39:00;;;;;;;5.10;3.00;;;18.70;99.90;;;;;;5101303;28;20178;-87
2023/10/07 05:41:28;;;;;;;5.20;2.80;;;18.70;99.90;;;;;;5094308;28;20170;-87
2023/10/07 05:43:54;;;;;;;5.57;3.53;;;18.70;99.90;;;;;;5098489;28;20182;-87
2023/10/07 05:46:20;;;;;;;4.43;2.90;;;18.70;99.90;;;;;;5096476;28;20250;-87
2023/10/07 05:48:47;;;;;;;5.53;3.30;;;18.70;99.90;;;;;;5095421;28;20292;-87
2023/10/07 05:51:13;;;;;;;5.93;3.50;;;18.70;99.90;;;;;;5100764;28;20433;-87
2023/10/07 05:53:48;;;;;;;4.60;2.80;;;18.70;99.90;;;;;;5096857;28;20185;-87
2023/10/07 05:56:14;;;;;;;4.93;3.00;;;18.70;99.90;;;;;;5103605;28;20175;-87
2023/10/07 05:58:40;;;;;;;5.47;2.70;;;18.70;99.90;;;;;;5095075;28;20540;-87
2023/10/07 06:01:08;;;;;;;3.63;2.77;;;18.70;99.90;;;;;;5103356;28;20540;-87
2023/10/07 06:03:34;;;;;;;6.47;3.10;;;18.70;99.90;;;;;;5091240;28;20232;-87
2023/10/07 06:06:04;;;;;;;4.70;3.00;;;18.70;99.90;;;;;;5097889;28;20170;-87
2023/10/07 06:08:30;;;;;;;5.90;2.80;;;18.70;99.90;;;;;;5099145;28;20166;-87
2023/10/07 06:10:57;;;;;;;3.20;2.90;;;18.70;99.90;;;;;;5096863;28;20182;-87
2023/10/07 06:13:23;;;;;;;4.83;2.80;;;18.70;99.90;;;;;;5112253;28;20268;-87
2023/10/07 06:15:53;;;;;;;4.57;2.60;;;18.70;99.90;;;;;;5098565;28;20233;-87
2023/10/07 06:18:19;;;;;;;5.27;3.00;;;18.70;99.90;;;;;;5112914;28;20404;-87
2023/10/07 06:20:50;;;;;;;4.37;2.93;;;18.70;99.90;;;;;;5100293;28;20231;-86
2023/10/07 06:23:16;;;;;;;7.00;3.00;;;18.70;99.90;;;;;;5092886;28;20695;-87
2023/10/07 06:25:50;;;;;;;3.77;2.70;;;18.70;99.90;;;;;;5092038;28;20699;-87
2023/10/07 06:28:29;;;;;;;7.10;3.10;;;18.70;99.90;;;;;;5111997;28;20283;-87
2023/10/07 06:31:10;;;;;;;4.30;2.80;;;18.70;99.90;;;;;;5101416;28;20251;-87
2023/10/07 06:33:42;;;;;;;6.50;3.30;;;18.70;99.90;;;;;;5107882;28;20179;-87
2023/10/07 06:36:10;;;;;;;3.63;2.80;;;18.70;99.90;;;;;;5097354;28;20493;-87
2023/10/07 06:38:51;;;;;;;5.20;3.17;;;18.70;99.90;;;;;;5112342;28;20170;-87
2023/10/07 06:41:18;;;;;;;5.37;3.50;;;18.70;99.90;;;;;;5101561;28;20838;-87
2023/10/07 06:43:49;;;;;;;5.33;2.73;;;18.70;99.90;;;;;;5110847;28;20192;-87
2023/10/07 06:46:20;;;;;;;4.80;3.50;;;18.70;99.90;;;;;;5110235;28;20442;-87
2023/10/07 06:48:48;;;;;;;4.50;2.83;;;18.70;99.90;;;;;;5095214;28;20214;-87
2023/10/07 06:51:14;;;;;;;11.47;3.40;;;18.70;99.90;;;;;;5100017;28;20166;-87
2023/10/07 06:53:43;;;;;;;7.93;3.30;;;18.70;99.90;;;;;;5102729;28;20218;-87
2023/10/07 06:56:21;;;;;;;4.37;2.90;;;18.70;99.90;;;;;;5106133;28;20549;-87
2023/10/07 06:58:56;;;;;;;6.40;3.43;;;18.70;99.90;;;;;;5093289;28;20198;-87
2023/10/07 07:01:35;;;;;;;5.10;3.13;;;18.70;99.90;;;;;;5091812;28;20494;-87
2023/10/07 07:04:10;;;;;;;4.77;3.30;;;18.70;99.90;;;;;;5107234;28;20178;-87
2023/10/07 07:06:43;;;;;;;5.00;3.03;;;18.70;99.90;;;;;;5104417;28;20182;-87
2023/10/07 07:12:04;;;;;;;3.83;2.93;;;18.70;99.90;;;;;;5104231;28;20194;-87
2023/10/07 07:14:31;;;;;;;4.50;3.07;;;18.70;99.90;;;;;;5107828;28;20414;-87
2023/10/07 07:20:19;;;;;;;5.83;3.27;;;18.70;99.90;;;;;;5094062;28;20209;-87
2023/10/07 07:22:44;;;;;;;7.53;2.90;;;18.70;99.90;;;;;;5102228;28;20523;-87
2023/10/07 07:25:12;;;;;;;4.37;2.63;;;18.70;99.90;;;;;;5091846;28;20179;-87
2023/10/07 07:27:50;;;;;;;5.30;2.70;;;18.70;99.90;;;;;;5100496;28;20175;-87
2023/10/07 07:30:29;;;;;;;5.60;3.27;;;18.80;99.90;;;;;;5090670;28;20411;-87
2023/10/07 07:32:58;;;;;;;6.97;3.10;;;18.70;99.90;;;;;;5098404;28;20170;-87
2023/10/07 07:35:38;;;;;;;4.33;3.13;;;18.70;99.90;;;;;;5088679;28;20233;-87
2023/10/07 07:41:06;;;;;;;4.60;2.90;;;18.80;99.90;;;;;;5091675;28;20266;-87
2023/10/07 07:43:36;;;;;;;4.90;2.50;;;18.80;99.90;;;;;;5106235;28;20192;-87
2023/10/07 07:46:29;;;;;;;4.83;3.03;;;18.80;99.90;;;;;;5094697;28;20263;-88
2023/10/07 07:48:55;;;;;;;7.07;3.10;;;18.80;99.90;;;;;;5097688;28;20275;-88
2023/10/07 07:51:24;;;;;;;3.17;2.50;;;18.80;99.90;;;;;;5110782;28;20170;-89
2023/10/07 07:53:51;;;;;;;6.60;3.43;;;18.80;99.90;;;;;;5099789;28;20181;-88
2023/10/07 07:56:18;;;;;;;3.33;2.37;;;18.80;99.90;;;;;;5110613;28;20228;-88
2023/10/07 07:58:47;;;;;;;3.97;2.83;;;18.80;99.90;;;;;;5101275;28;20261;-88
2023/10/07 08:01:28;;;;;;;4.03;2.90;;;18.90;99.90;;;;;;5105513;28;20486;-88
2023/10/07 08:04:03;;;;;;;5.03;2.83;;;18.90;99.90;;;;;;5097127;28;20175;-88
2023/10/07 08:06:29;;;;;;;4.63;2.80;;;19.00;99.90;;;;;;5106133;28;20475;-88
2023/10/07 08:08:55;;;;;;;6.13;3.00;;;19.00;99.90;;;;;;5099906;28;20603;-88
2023/10/07 08:11:22;;;;;;;4.70;2.83;;;19.00;99.90;;;;;;5105767;28;20193;-86
2023/10/07 08:13:53;;;;;;;5.07;2.50;;;19.00;99.90;;;;;;5110506;28;20163;-85
2023/10/07 08:16:19;;;;;;;4.27;3.10;;;19.00;99.90;;;;;;5104865;28;20212;-85
2023/10/07 08:18:54;;;;;;;3.63;2.60;;;19.00;99.90;;;;;;5105497;28;20171;-85
2023/10/07 08:21:28;;;;;;;2.87;2.30;;;19.00;99.90;;;;;;5102610;28;20169;-85
2023/10/07 08:23:54;;;;;;;3.60;2.80;;;19.00;99.90;;;;;;5105005;28;20388;-85
2023/10/07 08:26:23;;;;;;;4.53;2.80;;;19.00;99.90;;;;;;5098760;28;20170;-86
2023/10/07 08:31:37;;;;;;;3.63;2.70;;;19.20;99.90;;;;;;5101810;28;20335;-85
2023/10/07 08:36:43;;;;;;;4.27;2.80;;;19.50;99.90;;;;;;5113702;27;20186;-86
2023/10/07 08:39:09;;;;;;;4.43;2.47;;;19.60;99.90;;;;;;5108038;28;20165;-85
2023/10/07 08:41:40;;;;;;;4.10;3.00;;;19.50;99.90;;;;;;5101050;28;20456;-86
2023/10/07 08:46:53;;;;;;;3.70;2.73;;;19.40;99.90;;;;;;5099760;28;20315;-86
2023/10/07 08:49:27;;;;;;;6.17;2.90;;;19.40;99.90;;;;;;5105858;28;20421;-85
2023/10/07 08:51:54;;;;;;;4.73;3.20;;;19.40;99.90;;;;;;5099002;28;20178;-85
2023/10/07 08:54:26;;;;;;;6.50;3.23;;;19.30;99.90;;;;;;5100773;28;20215;-85
2023/10/07 08:56:58;;;;;;;4.53;3.03;;;19.30;99.90;;;;;;5098601;28;20189;-85
2023/10/07 08:59:30;;;;;;;4.03;2.60;;;19.30;99.90;;;;;;5108773;28;20620;-86
2023/10/07 09:02:12;;;;;;;5.07;3.27;;;19.30;99.90;;;;;;5092753;28;20272;-86
2023/10/07 09:04:40;;;;;;;4.77;3.00;;;19.30;99.90;;;;;;5090394;28;20167;-85
2023/10/07 09:07:08;;;;;;;6.10;2.90;;;19.30;99.90;;;;;;5100316;28;20181;-85
2023/10/07 09:09:39;;;;;;;6.40;3.07;;;19.30;99.90;;;;;;5088840;28;20472;-85
2023/10/07 09:12:14;;;;;;;7.50;3.33;;;19.30;99.90;;;;;;5093785;28;20250;-85
2023/10/07 09:14:55;;;;;;;6.57;3.13;;;19.30;99.90;;;;;;5109281;28;20464;-85
2023/10/07 09:17:23;;;;;;;7.10;3.00;;;19.30;99.90;;;;;;5106855;28;20158;-85
2023/10/07 09:19:53;;;;;;;7.83;3.10;;;19.30;99.90;;;;;;5111063;28;20246;-85
2023/10/07 09:22:24;;;;;;;7.07;3.33;;;19.30;99.90;;;;;;5099072;28;20179;-85
2023/10/07 09:24:54;;;;;;;8.13;3.10;;;19.40;99.90;;;;;;5111421;28;20448;-87
2023/10/07 09:27:36;;;;;;;7.47;3.10;;;19.40;99.90;;;;;;5096168;28;20174;-86
2023/10/07 09:30:15;;;;;;;6.03;3.03;;;19.40;99.90;;;;;;5111002;28;20300;-86
2023/10/07 09:32:44;;;;;;;5.73;2.97;;;19.50;99.90;;;;;;5096218;28;20373;-86
2023/10/07 09:35:19;;;;;;;7.37;3.60;;;19.50;99.90;;;;;;5110621;28;20681;-86
2023/10/07 09:37:46;;;;;;;7.80;3.37;;;19.60;99.90;;;;;;5097057;28;20267;-86
2023/10/07 09:40:53;;;;;;;6.80;3.10;;;19.70;99.90;;;;;;5108543;28;20574;-87
2023/10/07 09:43:29;;;;;;;5.03;3.10;;;19.70;99.90;;;;;;5099830;28;20583;-87
2023/10/07 09:45:58;;;;;;;5.13;2.63;;;19.80;99.90;;;;;;5112627;28;20188;-87
2023/10/07 09:48:31;;;;;;;4.97;3.10;;;19.80;99.90;;;;;;5096786;28;20327;-87
2023/10/07 09:51:02;;;;;;;5.37;3.33;;;19.90;99.90;;;;;;5106233;28;20520;-87
2023/10/07 09:53:49;;;;;;;6.30;3.00;;;19.90;99.90;;;;;;5102431;28;20193;-87
2023/10/07 09:56:39;;;;;;;6.00;3.27;;;20.00;99.90;;;;;;5108173;28;20167;-87
2023/10/07 09:59:19;;;;;;;5.10;3.00;;;20.00;99.90;;;;;;5091217;28;20167;-87
2023/10/07 10:02:31;;;;;;;7.07;3.20;;;20.00;99.90;;;;;;5092630;28;20163;-87
2023/10/07 10:05:15;;;;;;;5.30;3.07;;;20.00;99.90;;;;;;5105096;28;20552;-87
2023/10/07 10:08:19;;;;;;;8.13;3.40;;;20.10;99.90;;;;;;5102988;28;20510;-87
2023/10/07 10:10:46;;;;;;;7.13;3.27;;;20.10;99.90;;;;;;5110233;28;20229;-87
2023/10/07 10:13:29;;;;;;;8.90;3.00;;;20.10;99.90;;;;;;5099371;28;20167;-87
2023/10/07 10:16:00;;;;;;;4.50;2.83;;;20.10;99.90;;;;;;5110252;28;20178;-87
2023/10/07 10:18:38;;;;;;;4.70;2.63;;;20.20;99.90;;;;;;5097656;28;20290;-87
2023/10/07 10:21:09;;;;;;;4.63;2.77;;;20.20;99.90;;;;;;5106382;28;20451;-87
2023/10/07 10:23:37;;;;;;;3.43;2.40;;;20.30;99.90;;;;;;5085521;28;20171;-87
2023/10/07 10:26:14;;;;;;;6.73;2.93;;;20.30;99.90;;;;;;5107723;28;20166;-87
2023/10/07 10:28:41;;;;;;;3.93;2.80;;;20.40;99.90;;;;;;5104723;28;20170;-87
2023/10/07 10:31:40;;;;;;;4.53;3.00;;;20.40;99.90;;;;;;5090203;28;20630;-87
2023/10/07 10:34:08;;;;;;;7.20;3.03;;;20.50;99.90;;;;;;5097711;28;20184;-87
2023/10/07 10:36:38;;;;;;;4.00;2.60;;;20.60;99.90;;;;;;5087128;28;20313;-87
2023/10/07 10:39:18;;;;;;;4.37;2.57;;;20.60;99.90;;;;;;5096221;28;20209;-87
2023/10/07 10:41:44;;;;;;;5.67;2.97;;;20.50;99.90;;;;;;5069009;28;20170;-87
2023/10/07 10:44:10;;;;;;;4.00;2.93;;;20.50;99.90;;;;;;5091629;28;20273;-86
2023/10/07 10:46:44;;;;;;;4.87;2.80;;;20.40;99.90;;;;;;5104043;28;20178;-87
2023/10/07 10:49:18;;;;;;;5.40;2.63;;;20.50;99.90;;;;;;5096838;28;20195;-87
2023/10/07 10:51:46;;;;;;;6.40;2.50;;;20.50;99.90;;;;;;5105728;28;20182;-90
2023/10/07 10:54:19;;;;;;;5.20;2.47;;;20.50;99.90;;;;;;5100555;28;20167;-89
2023/10/07 10:56:48;;;;;;;4.77;2.70;;;20.50;99.90;;;;;;5088202;28;20224;-89
2023/10/07 10:59:22;;;;;;;4.60;2.43;;;20.50;99.90;;;;;;5093305;28;20176;-86
2023/10/07 11:01:50;;;;;;;6.30;2.70;;;20.60;99.90;;;;;;5094896;28;20164;-87
2023/10/07 11:04:19;;;;;;;4.77;2.70;;;20.50;99.90;;;;;;5094761;28;20171;-87
2023/10/07 11:06:50;;;;;;;4.40;2.50;;;20.50;99.90;;;;;;5101908;28;20205;-86
2023/10/07 11:09:18;;;;;;;5.90;2.70;;;20.50;99.90;;;;;;5105839;28;20200;-86
2023/10/07 11:11:48;;;;;;;5.47;2.77;;;20.50;99.90;;;;;;5099197;28;20261;-86
2023/10/07 11:14:20;;;;;;;5.80;2.33;;;20.50;99.90;;;;;;5107256;28;20171;-86
2023/10/07 11:16:47;;;;;;;4.03;2.53;;;20.50;99.90;;;;;;5094674;28;20253;-85
2023/10/07 11:19:16;;;;;;;5.17;2.57;;;20.60;99.90;;;;;;5089329;28;20220;-86
2023/10/07 11:21:44;;;;;;;4.40;2.47;;;20.60;99.90;;;;;;5098255;28;20359;-86
2023/10/07 11:24:23;;;;;;;4.57;2.50;;;20.60;99.90;;;;;;5085688;28;20171;-86
2023/10/07 11:26:49;;;;;;;3.80;2.20;;;20.60;99.90;;;;;;5097384;28;20594;-86
2023/10/07 11:29:15;;;;;;;5.13;2.47;;;20.60;99.90;;;;;;5088924;28;20203;-87
2023/10/07 11:31:41;;;;;;;5.37;2.27;;;20.70;99.90;;;;;;5099217;28;20251;-87
2023/10/07 11:34:10;;;;;;;5.50;2.47;;;20.60;99.90;;;;;;5090479;28;20258;-87
2023/10/07 11:36:49;;;;;;;3.67;2.30;;;20.70;99.90;;;;;;5106120;28;20200;-88
2023/10/07 11:39:14;;;;;;;4.47;2.40;;;20.70;99.90;;;;;;5091774;28;20299;-87
2023/10/07 11:41:44;;;;;;;3.70;2.33;;;20.70;99.90;;;;;;5085140;28;20484;-87
2023/10/07 11:44:16;;;;;;;3.13;2.20;;;20.70;99.90;;;;;;5088789;28;20167;-86
2023/10/07 11:46:43;;;;;;;4.53;2.50;;;20.70;99.90;;;;;;5092567;28;20174;-87
2023/10/07 11:49:08;;;;;;;4.53;2.40;;;20.70;99.90;;;;;;5107028;28;20502;-87
2023/10/07 11:51:34;;;;;;;5.00;2.30;;;20.70;99.90;;;;;;5097773;28;20162;-86
2023/10/07 11:54:00;;;;;;;3.63;2.47;;;20.70;99.90;;;;;;5096256;28;20170;-87
2023/10/07 11:56:27;;;;;;;4.50;2.07;;;20.70;99.90;;;;;;5094897;28;20159;-87
2023/10/07 11:58:54;;;;;;;3.97;2.60;;;20.70;99.90;;;;;;5089241;28;20182;-86
2023/10/07 12:01:20;;;;;;;3.30;2.20;;;20.70;99.90;;;;;;5090513;28;20366;-87
2023/10/07 12:03:48;;;;;;;4.70;2.37;;;20.80;99.90;;;;;;5094214;28;20163;-87
2023/10/07 12:06:14;;;;;;;4.13;2.30;;;20.80;99.90;;;;;;5088732;28;20167;-86
2023/10/07 12:08:40;;;;;;;6.00;2.70;;;20.70;99.90;;;;;;5096069;28;20178;-86
2023/10/07 12:11:07;;;;;;;3.57;2.30;;;20.80;99.90;;;;;;5086245;28;20210;-86
2023/10/07 12:13:35;;;;;;;5.00;2.20;;;20.70;99.90;;;;;;5100553;28;20174;-86
2023/10/07 12:16:01;;;;;;;4.07;2.40;;;20.80;99.90;;;;;;5088053;28;20167;-86
2023/10/07 12:18:26;;;;;;;3.57;1.90;;;20.80;99.90;;;;;;5096051;28;20256;-86
2023/10/07 12:20:55;;;;;;;3.37;2.23;;;20.80;99.90;;;;;;5103322;28;20219;-86
2023/10/07 12:23:22;;;;;;;3.40;2.43;;;20.80;99.90;;;;;;5098255;28;20178;-86
2023/10/07 12:25:48;;;;;;;3.00;2.20;;;20.80;99.90;;;;;;5086400;28;20236;-86
2023/10/07 12:28:13;;;;;;;4.77;2.53;;;20.80;99.90;;;;;;5098108;28;20185;-86
2023/10/07 12:30:39;;;;;;;4.97;2.20;;;20.80;99.90;;;;;;5084014;28;20206;-86
2023/10/07 12:33:05;;;;;;;5.87;2.50;;;20.90;99.90;;;;;;5098267;28;20220;-86
2023/10/07 12:35:34;;;;;;;5.20;2.40;;;20.90;99.90;;;;;;5085171;28;20190;-86
2023/10/07 12:38:00;;;;;;;4.40;2.30;;;20.90;99.90;;;;;;5094756;28;20545;-86
2023/10/07 12:40:29;;;;;;;5.50;2.60;;;20.90;99.90;;;;;;5087882;28;20544;-86
2023/10/07 12:42:56;;;;;;;5.00;2.70;;;20.90;99.90;;;;;;5096977;28;20177;-87
2023/10/07 12:45:23;;;;;;;7.30;2.47;;;20.90;99.90;;;;;;5092339;28;20430;-87
2023/10/07 12:47:52;;;;;;;3.87;2.47;;;20.90;99.90;;;;;;5092207;28;20277;-87
2023/10/07 12:50:28;;;;;;;4.83;2.60;;;20.90;99.90;;;;;;5092782;28;20306;-87
2023/10/07 12:52:56;;;;;;;5.93;2.20;;;20.90;99.90;;;;;;5093218;28;20174;-87
2023/10/07 12:55:21;;;;;;;4.30;2.30;;;20.90;99.90;;;;;;5097928;28;20222;-86
2023/10/07 12:57:50;;;;;;;3.30;2.30;;;20.90;99.90;;;;;;5100771;28;20328;-87
2023/10/07 13:00:23;;;;;;;3.93;2.30;;;20.90;99.90;;;;;;5093475;28;20178;-87
2023/10/07 13:02:50;;;;;;;3.10;2.23;;;20.90;99.90;;;;;;5090652;28;20178;-87
2023/10/07 13:05:19;;;;;;;4.77;2.73;;;20.90;99.90;;;;;;5092606;28;20178;-87
2023/10/07 13:07:49;;;;;;;3.93;2.57;;;20.90;99.90;;;;;;5104908;28;20190;-87
2023/10/07 13:10:17;;;;;;;4.10;2.30;;;20.90;99.90;;;;;;5086961;28;20203;-86
2023/10/07 13:12:46;;;;;;;4.23;2.13;;;20.90;99.90;;;;;;5087230;28;20189;-87
2023/10/07 13:15:16;;;;;;;3.80;2.27;;;20.90;99.90;;;;;;5096082;28;20430;-87
2023/10/07 13:17:45;;;;;;;5.47;2.23;;;20.90;99.90;;;;;;5087581;28;20422;-87
2023/10/07 13:20:23;;;;;;;4.70;2.33;;;20.90;99.90;;;;;;5089264;28;20175;-87
2023/10/07 13:22:53;;;;;;;6.53;2.77;;;21.00;99.90;;;;;;5087719;28;20415;-87
2023/10/07 13:25:20;;;;;;;6.13;2.40;;;21.00;99.90;;;;;;5094811;28;20177;-87
2023/10/07 13:27:49;;;;;;;3.13;2.07;;;21.00;99.90;;;;;;5109782;28;20194;-87
2023/10/07 13:30:17;;;;;;;6.70;2.90;;;21.00;99.90;;;;;;5097836;28;20206;-87
2023/10/07 13:32:44;;;;;;;5.10;2.40;;;21.10;99.90;;;;;;5109688;28;20266;-88
2023/10/07 13:35:19;;;;;;;6.53;2.80;;;21.10;99.90;;;;;;5094711;28;20226;-88
2023/10/07 13:37:49;;;;;;;5.53;2.73;;;21.20;99.90;;;;;;5069656;28;20179;-88
2023/10/07 13:40:16;;;;;;;5.87;2.70;;;21.20;99.90;;;;;;5097008;28;20569;-88
2023/10/07 13:42:47;;;;;;;5.20;3.03;;;21.20;99.90;;;;;;5086856;28;20190;-88
2023/10/07 13:45:17;;;;;;;5.67;3.40;;;21.10;99.90;;;;;;5094231;28;20551;-88
2023/10/07 13:47:44;;;;;;;5.27;2.53;;;21.10;99.90;;;;;;5087291;28;20207;-89
2023/10/07 13:50:13;;;;;;;4.27;2.63;;;21.10;99.90;;;;;;5094820;28;20200;-88
2023/10/07 13:52:50;;;;;;;4.80;2.67;;;21.10;99.90;;;;;;5076504;28;20206;-88